Terminal Aerodrome Forecast
Issued by NWS

Home | Current Version | Previous Version | Text Only | Print | Product List | Glossary On
Versions: 1 2 3 4 5 6 7 8 9 10 11 12 13 14 15 16 17 18 19 20 21 22 23 24
000
FTUS43 KAPX 230500
TAFAPN
TAF
KAPN 230538Z 2306/2406 32009KT P6SM SCT035
     FM230700 32009KT P6SM SKC
     FM231400 34012G21KT P6SM SKC
     FM240000 32006KT P6SM SCT250=

USA.gov is the U.S. government's official web portal to all federal, state and local government web resources and services.